• Join FlightAware (Why Join?)
  • Login
  • US Flag 
08:45AM EDT


 

Airport Tracker/Info


-or-


 

Live Flight TrackerFlight Track Log ✈ UAL3756 ✈ 02-May-2013 ✈ KBTV - KORD

Flight Track Log - Related Links

Times and Time Zones

All times are in EDT time to prevent confusion due to time zone crossing. See the UAL3756 flight status page for this flight to view local times or setup timezone preferences in your user account.

Time Position Orientation Groundspeed Altitude Reporting Facility
EDT Latitude Longitude Course Direction KTS MPH feet Rate Location/Type
11:50AM 44.3600 -73.3169 258° West 267 307 8,800  Level Boston Center
11:51AM 44.3645 -73.7150 259° West  Level FlightAware Approximate
11:51AM 44.3425 -73.4300 258° West 293 337 11,400  Level Boston Center
11:52AM 44.3441 -73.8581 259° West  Level FlightAware Approximate
11:52AM 44.3267 -73.5514 260° West 310 357 13,600  Level Boston Center
11:53AM 44.3207 -74.0001 255° West  Level FlightAware Approximate
11:53AM 44.3067 -73.6875 258° West 345 397 15,200  Level Boston Center
11:54AM 44.2939 -74.1410 255° West  Level FlightAware Approximate
11:54AM 44.2883 -73.8292 260° West 366 421 17,600  Level Boston Center
11:55AM 44.2670 -74.2818 255° West  Level FlightAware Approximate
11:55AM 44.2678 -73.9708 259° West 373 429 19,100  Level Boston Center
11:56AM 44.2450 -74.4241 258° West  Level FlightAware Approximate
11:56AM 44.2517 -74.0922 260° West 383 441 20,700  Level Boston Center
11:57AM 44.2283 -74.2567 259° West 394 453 22,600 1,860 Climbing Boston Center
11:58AM 44.2069 -74.4094 259° West 399 459 24,500 1,560 Climbing Boston Center
11:59AM 44.1833 -74.5592 258° West 404 465 25,800 1,200 Climbing Boston Center
12:00PM 44.1597 -74.7147 258° West 409 471 27,000 1,140 Climbing Boston Center
12:01PM 44.1375 -74.8758 259° West 419 482 28,100 1,200 Climbing Boston Center
12:02PM 44.1131 -75.0425 259° West 433 498 29,400 1,080 Climbing Boston Center
12:03PM 44.0906 -75.2064 259° West 433 498 30,300 840 Climbing Boston Center
12:04PM 44.0633 -75.3728 257° West 433 498 31,100 1,020 Climbing Boston Center
12:05PM 44.0383 -75.5361 258° West 438 504 32,400 1,200 Climbing Boston Center
12:06PM 44.0150 -75.7025 259° West 443 510 33,600 1,080 Climbing Boston Center
12:07PM 43.9894 -75.8656 258° West 443 510 34,600 960 Climbing Boston Center
12:08PM 43.9617 -76.0228 256° West 443 510 35,600 600 Climbing Boston Center
12:09PM 43.9350 -76.2058 259° West 436 502 36,000 180 Climbing Boston Center
12:10PM 43.9033 -76.4028 257° West 436 502 36,000  Level Boston Center
12:11PM 43.8767 -76.5653 257° West 436 502 36,000  Level Boston Center
12:12PM 43.8497 -76.7303 257° West 436 502 36,000 1,320 Level Boston Center
12:13PM 43.8833 -76.7833 311° West 430 495 38,000 1,320 Climbing Toronto Center
12:14PM 43.8500 -76.9500 255° West 440 506 38,000  Level Toronto Center
12:15PM 43.8333 -77.1167 262° West 440 506 38,000  Level Toronto Center
12:16PM 43.8167 -77.3000 263° West 440 506 38,000  Level Toronto Center
12:17PM 43.8167 -77.4667 270° West 440 506 38,000  Level Toronto Center
12:18PM 43.8000 -77.6500 263° West 440 506 38,000  Level Toronto Center
12:19PM 43.7667 -77.7833 251° West 440 506 38,000  Level Toronto Center
12:20PM 43.7500 -77.9667 263° West 430 495 38,000  Level Toronto Center
12:21PM 43.7333 -78.1333 262° West 430 495 38,000  Level Toronto Center
12:22PM 43.7167 -78.2667 260° West 430 495 38,000  Level Toronto Center
12:23PM 43.7000 -78.4500 263° West 430 495 38,000  Level Toronto Center
12:24PM 43.7000 -78.6167 270° West 430 495 38,000  Level Toronto Center
12:25PM 43.6833 -78.7833 262° West 430 495 38,000  Level Toronto Center
12:26PM 43.6667 -78.9333 261° West 440 506 38,000  Level Toronto Center
12:27PM 43.6500 -79.1000 262° West 440 506 38,000  Level Toronto Center
12:28PM 43.6333 -79.2833 263° West 440 506 38,000  Level Toronto Center
12:29PM 43.6167 -79.4500 262° West 440 506 38,000  Level Toronto Center
12:30PM 43.5833 -79.6167 255° West 450 518 38,000  Level Toronto Center
12:31PM 43.5667 -79.8000 263° West 450 518 38,000  Level Toronto Center
12:32PM 43.5500 -79.9500 261° West 440 506 38,000  Level Toronto Center
12:33PM 43.5167 -80.1167 255° West 440 506 38,000  Level Toronto Center
12:34PM 43.5000 -80.2833 262° West 440 506 38,000  Level Toronto Center
12:35PM 43.4833 -80.4667 263° West 440 506 38,000  Level Toronto Center
12:36PM 43.4500 -80.6167 253° West 440 506 38,000  Level Toronto Center
12:37PM 43.4333 -80.7833 262° West 440 506 38,000  Level Toronto Center
12:38PM 43.4000 -80.9333 253° West 440 506 38,000  Level Toronto Center
12:39PM 43.3667 -81.1000 255° West 440 506 38,000  Level Toronto Center
12:40PM 43.3500 -81.2667 262° West 430 495 38,000  Level Toronto Center
12:41PM 43.3333 -81.4167 261° West 430 495 38,000  Level Toronto Center
12:42PM 43.3000 -81.5833 255° West 430 495 38,000  Level Toronto Center
12:43PM 43.2833 -81.7333 261° West 430 495 38,000  Level Toronto Center
12:44PM 43.2667 -81.9000 262° West 430 495 38,000  Level Toronto Center
12:45PM 43.2167 -82.0833 250° West 430 495 38,000  Level Toronto Center
12:46PM 43.2000 -82.2167 260° West 430 495 38,000  Level Toronto Center
12:47PM 43.1833 -82.4000 263° West 430 495 38,000  Level Toronto Center
12:48PM 43.1667 -82.5333 260° West 430 495 38,000 -420 Level Toronto Center
12:49PM 43.1361 -82.7397 259° West 430 495 37,200 -780 Descending Cleveland Center
12:50PM 43.1103 -82.8953 257° West 430 495 36,400 -840 Descending Cleveland Center
12:51PM 43.0817 -83.0592 257° West 430 495 35,600 -840 Descending Cleveland Center
12:52PM 43.0575 -83.2172 258° West 430 495 34,800 -840 Descending Cleveland Center
12:53PM 43.0306 -83.3808 257° West 430 495 34,000 -840 Descending Cleveland Center
12:54PM 43.0017 -83.5442 256° West 436 502 33,200 -780 Descending Cleveland Center
12:55PM 42.9722 -83.7044 256° West 436 502 32,500 -480 Descending Cleveland Center
12:57PM 42.9481 -83.9447 262° West 443 510 32,000 -300 Descending Chicago Center
12:57PM 42.9333 -84.0000 250° West 440 506 32,000  Level Toronto Center
12:58PM 42.9000 -84.1833 256° West 440 506 32,000  Level Toronto Center
12:59PM 42.9161 -84.2772 283° West 443 510 32,000  Level Chicago Center
01:00PM 42.8986 -84.4433 262° West 444 511 32,000  Level Chicago Center
01:01PM 42.8786 -84.6436 262° West 446 513 32,000  Level Chicago Center
01:02PM 42.8603 -84.8106 262° West 446 513 32,000  Level Chicago Center
01:03PM 42.8428 -84.9775 262° West 445 512 32,000  Level Chicago Center
01:04PM 42.8256 -85.1461 262° West 448 516 32,000  Level Chicago Center
01:05PM 42.8067 -85.3117 261° West 445 512 32,000  Level Chicago Center
01:06PM 42.7886 -85.4800 262° West 448 516 32,000  Level Chicago Center
01:07PM 42.7603 -85.6442 257° West 446 513 32,000 -1,200 Level Chicago Center
01:08PM 42.7300 -85.8111 256° West 450 518 29,600 -3,360 Descending Chicago Center
01:09PM 42.6947 -86.0042 256° West 437 503 25,100 -4,020 Descending Chicago Center
01:10PM 42.6667 -86.1600 256° West 425 489 21,400 -2,520 Descending Chicago Center
01:11PM 42.6383 -86.3103 256° West 414 476 20,000 -720 Descending Chicago Center
01:12PM 42.6089 -86.4608 255° West 416 479 20,000  Level Chicago Center
01:13PM 42.5794 -86.6178 256° West 427 491 20,000  Level Chicago Center
01:14PM 42.5508 -86.7731 256° West 427 491 20,000 -1,080 Level Chicago Center
01:15PM 42.5022 -86.9431 249° West 409 471 17,800 -2,460 Descending Chicago Center
01:16PM 42.4614 -87.0856 249° West 400 460 15,000 -3,060 Descending Chicago Center
01:17PM 42.4250 -87.2203 250° West 384 442 11,500 -2,460 Descending Chicago Center
01:18PM 42.3903 -87.3444 249° West 355 409 10,000 -600 Descending Chicago Center
01:20PM 42.3333 -87.5333 248° West 346 398 10,000  Level Chicago TRACON
01:20PM 42.2931 -87.5806 221° Southwest 348 400 10,000  Level Chicago Center
01:21PM 42.2197 -87.6594 219° Southwest 339 390 10,000  Level Chicago Center
01:22PM 42.1453 -87.7372 218° Southwest 340 391 10,000  Level Chicago Center
01:23PM 42.1167 -87.7667 217° Southwest 322 371 10,000 -1,140 Level Chicago TRACON
01:24PM 42.1000 -87.8667 257° West 282 325 8,500 -1,620 Descending Chicago TRACON
01:25PM 42.1000 -87.9500 270° West 272 313 7,000 -840 Descending Chicago TRACON
01:26PM 42.1000 -88.0333 270° West 204 235 7,000 -1,380 Level Chicago TRACON
01:27PM 42.0833 -88.1167 255° West 207 238 4,300 -2,040 Descending Chicago TRACON
01:28PM 42.0536 -88.1364 206° Southwest 200 230 3,100 -720 Descending Chicago Center
01:29PM 42.0089 -88.1103 157° South 190 219 3,000 -120 Descending Chicago Center